Address 0x25ac7ed77978a6c654c62e020ecd48025b78216b 5

 
 
Txn Hash Method
Block
From
To
Value [Txn Fee]
0x0159285544ed2c907b3868ae44fa1999a5c77fd060843ecf87521ffca9e3a353Transfer178903822021-08-12 4:21:56326 days 22 hrs ago0x25ac7ed77978a6c654c62e020ecd48025b78216bOUT Mapper: USDT Stablecoin0 MATIC0.000211535
0x26da8d4852989e14529eee1242380641a8d28e3e13325f644a926a0ba7a85c1aSwap Exact Token...178903562021-08-12 4:20:30326 days 22 hrs ago0x25ac7ed77978a6c654c62e020ecd48025b78216bOUT 0x4aaec1fa8247f85dc3df20f4e03feafdcb087ae90 MATIC0.000862785
0xf2e2967d4e5a3a91bc0d8de00a737ea95c96d66c25e955e5be0f0e04f5a69056Remove Liquidity178902882021-08-12 4:18:10326 days 22 hrs ago0x25ac7ed77978a6c654c62e020ecd48025b78216bOUT 0x4aaec1fa8247f85dc3df20f4e03feafdcb087ae90 MATIC0.0007264055
0x8e5b49c9817503692e30045e60af1b43842d5016707f20f9a03e67326a3ae539Withdraw178902272021-08-12 4:16:04326 days 22 hrs ago0x25ac7ed77978a6c654c62e020ecd48025b78216bOUT 0xb93c082bcfccf5baea0e0f0c556668e25a41b8960 MATIC0.000649015
0xa030e240914d2d979b15463c5fdaecfb0b5185f4d52b9f88fbc7a8211eb8f4afSwap Exact Token...177330782021-08-07 22:18:51331 days 4 hrs ago0x25ac7ed77978a6c654c62e020ecd48025b78216bOUT 0x4aaec1fa8247f85dc3df20f4e03feafdcb087ae90 MATIC0.00047378453.5
0x3125e83a1ce28c4188a6fc8556a7c2b9e0e68d43b99c3828a324075500cde21eDeposit177329712021-08-07 22:15:08331 days 4 hrs ago0x25ac7ed77978a6c654c62e020ecd48025b78216bOUT 0xb93c082bcfccf5baea0e0f0c556668e25a41b8960 MATIC0.000128444731.01
0x422b0d8e994414af956f0009bc919551f8efa6c4e0cb20a21aac15aaf8b32c9cDeposit172014782021-07-24 2:14:27346 days 55 mins ago0x25ac7ed77978a6c654c62e020ecd48025b78216bOUT 0xb93c082bcfccf5baea0e0f0c556668e25a41b8960 MATIC0.00072055
0xd85f112802afff6486ade9d2d26bc120434115e6af99bfe2285b2f88f2ce1f0eTransfer172014692021-07-24 2:14:05346 days 55 mins ago0x25ac7ed77978a6c654c62e020ecd48025b78216bOUT Mapper: USDT Stablecoin0 MATIC0.000126035
0xb444267216ca03cdf8f0b562e5b5d66b56fda1d567fcb014baf49321368513c0Transfer172014512021-07-24 2:13:29346 days 56 mins ago0x25ac7ed77978a6c654c62e020ecd48025b78216bOUT0x4c98df9e19abc261648c15f0a5773f627fa821c2570 MATIC0.0001055
0x1fce1ae8ad57e80d0868c2f5e84e573950e69aed089d6cd2c5e0124a356e1e10Swap Exact Token...172014112021-07-24 2:12:09346 days 57 mins ago0x25ac7ed77978a6c654c62e020ecd48025b78216bOUT QuickSwap: Router0 MATIC0.002101159516.500000003
0xc0900e832a2a89d9ee618455fc10304894b1b5a26f0e26216b7854cbd4849d6dDeposit172014112021-07-24 2:12:09346 days 57 mins ago0x25ac7ed77978a6c654c62e020ecd48025b78216bOUT 0xb93c082bcfccf5baea0e0f0c556668e25a41b8960 MATIC0.0012717310
0x3f60b8785f5879bf6441da170e7bf52c193098303fabe80c3ee86bdeb2cacc7dRemove Liquidity...172010532021-07-24 1:57:41346 days 1 hr ago0x25ac7ed77978a6c654c62e020ecd48025b78216bOUT 0x4aaec1fa8247f85dc3df20f4e03feafdcb087ae90 MATIC0.0009225355
0xf53cb03f53d39fe85c3b52f835d4967a679847c16a083ac7d91f394768527e2aWithdraw172009872021-07-24 1:55:25346 days 1 hr ago0x25ac7ed77978a6c654c62e020ecd48025b78216bOUT 0xb93c082bcfccf5baea0e0f0c556668e25a41b8960 MATIC0.000649075
0xb64fd9389ea6db7049d336f3d0eda130baa766bbd7ecc1450bb43259e69874fbDeposit170580572021-07-20 4:35:52349 days 22 hrs ago0x25ac7ed77978a6c654c62e020ecd48025b78216bOUT 0xb93c082bcfccf5baea0e0f0c556668e25a41b8960 MATIC0.00072055
0xe33098cf7813bb5cbfd0c91358610209db5a51dadafa2769ce754d8aaa5c3f3dClaim Tokens170579672021-07-20 4:32:44349 days 22 hrs ago0x25ac7ed77978a6c654c62e020ecd48025b78216bOUT 0x1a48a3d7e779cd232f7cabb3b78a6b25852019c10 MATIC0.0004076155
0xd5c66b8c6e758807937485736d86523299efd35f4e65601a7be2801694950bf2Deposit170579242021-07-20 4:31:18349 days 22 hrs ago0x25ac7ed77978a6c654c62e020ecd48025b78216bOUT 0xb93c082bcfccf5baea0e0f0c556668e25a41b8960 MATIC0.00072055
0xb8582cb1aa2460120cee3c42d354971ac14ac680ef18ba6e93c4467db5bda3caDeposit170579072021-07-20 4:30:40349 days 22 hrs ago0x25ac7ed77978a6c654c62e020ecd48025b78216bOUT 0xb93c082bcfccf5baea0e0f0c556668e25a41b8960 MATIC0.0005888655
0x88b7a26c8e9aafbf9735c8820f18d4daef05c68f13bfab9732a8f11c6915b47fDeposit170579032021-07-20 4:30:32349 days 22 hrs ago0x25ac7ed77978a6c654c62e020ecd48025b78216bOUT 0xb93c082bcfccf5baea0e0f0c556668e25a41b8960 MATIC0.0006358655
0x2e8942f1cb1839b74e36f164319be26cd11f765d2561f4b227b79b3b944c154dDeposit169278212021-07-16 15:28:10353 days 11 hrs ago0x25ac7ed77978a6c654c62e020ecd48025b78216bOUT 0xb93c082bcfccf5baea0e0f0c556668e25a41b8960 MATIC0.0008357455
0x3482f0428048159fe40be4ba7c54ed3750d1b3b7064cc1bbc4efa1f97a425650Transfer169213692021-07-16 11:20:03353 days 15 hrs ago0x25ac7ed77978a6c654c62e020ecd48025b78216bOUT USD Coin0 MATIC0.000242765
0x027892424082a04d3e52c10cc0a52aa9fa15c3d19e8da0629c3ddcdf7622f02aTransfer169213302021-07-16 11:18:41353 days 15 hrs ago0x25ac7ed77978a6c654c62e020ecd48025b78216bOUT USD Coin0 MATIC0.000204025
0x2061b6ff171d3e99c4b11b1a2aadff9fda1dfb6cf6af6ea37a2e43a13723ccf1Transfer169210582021-07-16 11:09:21353 days 16 hrs ago0x25ac7ed77978a6c654c62e020ecd48025b78216bOUT0x4c98df9e19abc261648c15f0a5773f627fa821c2715 MATIC0.0001055
0x2620a4f13f81246796e6c7b9664f7d787f2043518bd8723b3c9cbedb1a2da13dRemove Liquidity...169209432021-07-16 11:05:23353 days 16 hrs ago0x25ac7ed77978a6c654c62e020ecd48025b78216bOUT 0x4aaec1fa8247f85dc3df20f4e03feafdcb087ae90 MATIC0.0009236855
0x67bcb1cf24bfad04b22e9c6dc0245254b23ae5e5fe1a967b3b179bdb8c2839e0Withdraw169207412021-07-16 10:57:35353 days 16 hrs ago0x25ac7ed77978a6c654c62e020ecd48025b78216bOUT 0xb93c082bcfccf5baea0e0f0c556668e25a41b8960 MATIC0.0007993555
0xef9101f005e6efd28ac51da6665c3fa326437a0763898c14b5d3e2aa62a6f67bTransfer168453412021-07-14 8:48:50355 days 18 hrs ago0x25ac7ed77978a6c654c62e020ecd48025b78216bOUT Mapper: USDT Stablecoin0 MATIC0.000211535
[ Download CSV Export 
Latest 6 internal transactions
Parent Txn Hash Block From To Value
0x3f60b8785f5879bf6441da170e7bf52c193098303fabe80c3ee86bdeb2cacc7d172010532021-07-24 1:57:41346 days 1 hr ago 0x4aaec1fa8247f85dc3df20f4e03feafdcb087ae90x25ac7ed77978a6c654c62e020ecd48025b78216b570.648694598325638129 MATIC
0x2620a4f13f81246796e6c7b9664f7d787f2043518bd8723b3c9cbedb1a2da13d169209432021-07-16 11:05:23353 days 16 hrs ago 0x4aaec1fa8247f85dc3df20f4e03feafdcb087ae90x25ac7ed77978a6c654c62e020ecd48025b78216b719.60136330753524126 MATIC
0xcc6b99eb4eddabd373098f71c326836db10c77f41237acafbcd440e6248145dc168010482021-07-13 2:24:28357 days 45 mins ago QuickSwap: Router0x25ac7ed77978a6c654c62e020ecd48025b78216b20.85763200637554074 MATIC
0x246d64998c04f766d7646fb24f4657e52347397486e1d4bbf44f698d400c9e37159657672021-06-21 5:00:41378 days 22 hrs ago 0x4aaec1fa8247f85dc3df20f4e03feafdcb087ae90x25ac7ed77978a6c654c62e020ecd48025b78216b0.058575601997448106 MATIC
0x63717337f61bda8306a09677a8041b71372fece8a2841b8c1aec86f38445821f159657092021-06-21 4:58:36378 days 22 hrs ago 0x4aaec1fa8247f85dc3df20f4e03feafdcb087ae90x25ac7ed77978a6c654c62e020ecd48025b78216b8.019899965115407338 MATIC
0x5b37be8db1c1d87b08ec17ef8acee11220ed5b3834b146a91115b3c335a9859c159027842021-06-19 14:49:35380 days 12 hrs ago QuickSwap: Router0x25ac7ed77978a6c654c62e020ecd48025b78216b1,087.041663081739245557 MATIC
[ Download CSV Export 
Loading

Contract Name:
0 MATIC

Compiler Version
0

Optimization Enabled:
0 MATIC

Other Settings:
-NA-
Block Transaction Gas Used Reward
Age Block Fee Address BC Fee Address Voting Power Jailed Incoming
Block Uncle Number Difficulty Gas Used Reward
Loading
Loading
Make sure to use the "Vote Down" button for any spammy posts, and the "Vote Up" for interesting conversations.